Terminal Aerodrome Forecast
Issued by NWS Flagstaff, AZ

Home | Current Version | Previous Version | Text Only | Print | Product List | Glossary On
Versions: 1 2 3 4 5 6 7 8 9 10 11 12 13
387
FTUS45 KFGZ 230521
TAFINW
TAF
KINW 230521Z 2306/2406 21018G28KT P6SM SCT050
     FM231300 25011KT P6SM SCT050
     FM231800 26018G28KT P6SM FEW050
     FM240300 25010KT P6SM SKC=

USA.gov is the U.S. government's official web portal to all federal, state and local government web resources and services.